createdAt,value
2017-09-16T20:30:54.822Z,7.60
2017-09-16T20:33:24.047Z,7.10
2017-09-16T20:35:52.496Z,8.40
2017-09-16T20:38:22.715Z,8.27
2017-09-16T20:40:52.887Z,8.50
2017-09-16T20:43:21.791Z,7.70
2017-09-16T20:45:49.922Z,7.53
2017-09-16T20:48:18.034Z,8.00
2017-09-16T20:50:47.093Z,8.30
2017-09-16T20:53:16.872Z,8.17
2017-09-16T20:55:47.183Z,7.87
2017-09-16T20:58:16.264Z,8.23
2017-09-16T21:00:45.340Z,8.20
2017-09-16T21:03:13.805Z,7.80
2017-09-16T21:05:42.310Z,8.40
2017-09-16T21:08:11.982Z,8.17
2017-09-16T21:10:40.835Z,7.80
2017-09-16T21:13:10.324Z,7.37
2017-09-16T21:15:39.567Z,8.17
2017-09-16T21:18:09.756Z,7.50
2017-09-16T21:20:39.065Z,7.77
2017-09-16T21:23:07.865Z,6.57
2017-09-16T21:25:36.315Z,6.20
2017-09-16T21:28:05.651Z,6.10
2017-09-16T21:30:34.108Z,6.00
2017-09-16T21:33:02.505Z,5.47
2017-09-16T21:35:30.918Z,4.80
2017-09-16T21:37:59.203Z,4.97
2017-09-16T21:40:27.631Z,5.03
2017-09-16T21:42:56.037Z,5.23
2017-09-16T21:45:25.235Z,4.53
2017-09-16T21:47:53.654Z,4.63
2017-09-16T21:50:22.052Z,5.07
2017-09-16T21:52:51.231Z,4.50
2017-09-16T21:55:20.079Z,4.90
2017-09-16T21:57:48.498Z,4.20
2017-09-16T22:00:16.980Z,3.97
2017-09-16T22:02:45.374Z,4.10
2017-09-16T22:05:13.796Z,4.00
2017-09-16T22:07:42.231Z,4.27
2017-09-16T22:10:10.306Z,3.80
2017-09-16T22:12:38.722Z,4.13
2017-09-16T22:15:07.150Z,3.77
2017-09-16T22:17:35.567Z,3.93
2017-09-16T22:20:04.733Z,3.60
2017-09-16T22:22:33.275Z,3.43
2017-09-16T22:25:01.686Z,3.70
2017-09-16T22:27:29.764Z,4.17
2017-09-16T22:29:58.451Z,3.73
2017-09-16T22:32:26.876Z,3.50
2017-09-16T22:34:55.080Z,3.30
2017-09-16T22:37:23.497Z,3.60
2017-09-16T22:39:51.722Z,3.77
2017-09-16T22:42:20.134Z,4.00
2017-09-16T22:44:48.565Z,3.53
2017-09-16T22:47:17.739Z,3.20
2017-09-16T22:49:46.155Z,3.30
2017-09-16T22:52:14.221Z,2.93
2017-09-16T22:54:42.630Z,3.27
2017-09-16T22:57:11.818Z,3.40
2017-09-16T22:59:41.003Z,3.03
2017-09-16T23:02:10.177Z,2.80
2017-09-16T23:04:39.349Z,2.67
2017-09-16T23:07:08.735Z,3.00
2017-09-16T23:09:37.897Z,2.90
2017-09-16T23:12:06.320Z,2.73
2017-09-16T23:14:34.751Z,2.97
2017-09-16T23:17:03.928Z,2.70
2017-09-16T23:19:33.098Z,2.60
2017-09-16T23:22:01.533Z,2.70
2017-09-16T23:24:29.948Z,2.90
2017-09-16T23:26:58.380Z,2.63
2017-09-16T23:29:26.816Z,2.63
2017-09-16T23:31:55.226Z,2.47
2017-09-16T23:34:24.383Z,2.73
2017-09-16T23:36:52.830Z,3.07
2017-09-16T23:39:21.223Z,2.80
2017-09-16T23:41:49.637Z,2.43
2017-09-16T23:44:18.070Z,2.67
2017-09-16T23:46:47.243Z,2.63
2017-09-16T23:49:16.418Z,2.40
2017-09-16T23:51:45.615Z,2.33
2017-09-16T23:54:13.663Z,2.20
2017-09-16T23:56:42.848Z,2.53
2017-09-16T23:59:12.071Z,2.40
